Time;durP1;ratioP1;P1;durP2;ratioP2;P2;SDS_P1;SDS_P2;PMS_P1;PMS_P2;Temp;Humidity;BMP_temperature;BMP_pressure;BME280_temperature;BME280_humidity;BME280_pressure;Samples;Min_cycle;Max_cycle;Signal;HPM_P1;HPM_P2
2022/05/16 00:01:08;;;;;;;4.90;2.10;;;;;;;12.94;60.15;101231.53;5983808;28;20070;-66
2022/05/16 00:04:03;;;;;;;5.23;1.50;;;;;;;12.81;60.61;101237.22;5982472;28;20169;-67
2022/05/16 00:06:59;;;;;;;3.80;2.05;;;;;;;12.83;60.14;101226.41;5982910;28;20293;-68
2022/05/16 00:09:54;;;;;;;3.90;1.20;;;;;;;12.79;60.61;101223.22;5982303;29;20035;-67
2022/05/16 00:12:50;;;;;;;5.38;1.20;;;;;;;12.84;60.00;101226.28;5985769;28;20053;-68
2022/05/16 00:15:45;;;;;;;5.63;1.55;;;;;;;12.70;60.58;101229.41;5981662;28;20031;-67
2022/05/16 00:18:41;;;;;;;3.87;1.33;;;;;;;12.71;60.93;101220.47;5979989;28;20515;-68
2022/05/16 00:21:37;;;;;;;4.90;1.17;;;;;;;12.70;61.48;101216.13;5992029;28;20038;-67
2022/05/16 00:24:32;;;;;;;5.10;1.33;;;;;;;12.58;61.35;101217.31;5982681;28;20063;-68
2022/05/16 00:27:27;;;;;;;4.38;1.42;;;;;;;12.58;61.60;101211.16;5982329;28;20039;-67
2022/05/16 00:30:23;;;;;;;5.23;1.70;;;;;;;12.65;61.51;101215.72;5985823;28;20031;-68
2022/05/16 00:33:19;;;;;;;4.03;1.35;;;;;;;12.66;61.76;101217.41;5983744;28;20066;-68
2022/05/16 00:36:14;;;;;;;2.63;1.40;;;;;;;12.36;63.04;101209.69;5982439;28;20040;-67
2022/05/16 00:39:09;;;;;;;3.60;1.20;;;;;;;12.05;63.75;101203.75;5982350;28;20031;-68
2022/05/16 00:42:05;;;;;;;4.23;1.60;;;;;;;12.03;63.76;101210.19;5982856;28;20031;-68
2022/05/16 00:45:00;;;;;;;3.55;1.30;;;;;;;12.15;63.30;101195.75;5988815;28;20027;-68
2022/05/16 00:47:55;;;;;;;3.90;1.40;;;;;;;12.05;63.74;101209.06;5993287;28;20402;-67
2022/05/16 00:50:51;;;;;;;1.93;1.13;;;;;;;11.78;64.86;101198.34;5981466;28;20287;-67
2022/05/16 00:53:46;;;;;;;2.87;1.20;;;;;;;11.84;64.80;101200.44;5984776;28;20042;-67
2022/05/16 00:56:43;;;;;;;2.65;1.05;;;;;;;11.62;65.22;101206.84;5973761;28;20032;-67
2022/05/16 00:59:58;;;;;;;4.90;1.45;;;;;;;11.77;65.09;101200.16;5976208;28;20027;-67
2022/05/16 01:06:11;;;;;;;1.95;1.00;;;;;;;11.65;65.31;101201.25;5981372;28;20044;-67
2022/05/16 01:09:07;;;;;;;3.43;1.20;;;;;;;11.40;66.20;101193.84;5980761;28;20039;-67
2022/05/16 01:12:03;;;;;;;2.53;1.00;;;;;;;11.39;66.60;101184.19;5982603;28;20274;-67
2022/05/16 01:15:00;;;;;;;2.28;1.27;;;;;;;11.32;66.04;101170.66;5981314;28;20115;-67
2022/05/16 01:17:55;;;;;;;2.90;1.42;;;;;;;11.34;66.27;101181.13;5980689;28;20474;-67
2022/05/16 01:21:15;;;;;;;5.07;1.40;;;;;;;11.26;66.47;101163.25;5979752;29;20122;-67
2022/05/16 01:24:14;;;;;;;2.85;1.23;;;;;;;11.16;66.65;101156.25;5993125;28;20455;-67
2022/05/16 01:27:10;;;;;;;2.55;1.45;;;;;;;11.07;67.02;101167.69;5981624;28;20383;-67
2022/05/16 01:30:06;;;;;;;4.23;1.27;;;;;;;11.02;67.16;101148.69;5979304;29;20035;-67
2022/05/16 01:33:02;;;;;;;4.20;1.52;;;;;;;11.09;67.22;101157.78;5983637;28;20487;-67
2022/05/16 01:35:57;;;;;;;2.17;1.10;;;;;;;10.99;67.85;101159.59;5979763;28;20031;-67
2022/05/16 01:38:53;;;;;;;4.20;1.23;;;;;;;10.92;67.67;101158.47;5973243;28;20122;-67
2022/05/16 01:41:48;;;;;;;3.92;1.30;;;;;;;10.89;67.75;101148.13;5979072;28;20031;-68
2022/05/16 01:44:44;;;;;;;8.32;1.50;;;;;;;10.72;68.60;101145.16;5988773;28;20089;-67
2022/05/16 01:47:39;;;;;;;1.70;1.10;;;;;;;10.71;68.48;101140.81;5990341;28;20360;-67
2022/05/16 01:50:34;;;;;;;3.30;1.13;;;;;;;10.67;68.62;101138.59;5980074;28;20267;-68
2022/05/16 01:53:30;;;;;;;4.93;1.50;;;;;;;10.71;68.35;101146.13;5982245;28;20554;-66
2022/05/16 01:56:26;;;;;;;8.43;1.48;;;;;;;10.77;68.26;101137.63;5980643;28;20283;-67
2022/05/16 01:59:21;;;;;;;4.17;1.40;;;;;;;10.64;68.94;101149.47;5979713;29;20039;-68
2022/05/16 02:02:16;;;;;;;3.47;1.30;;;;;;;10.56;69.07;101128.09;5979993;28;20399;-67
2022/05/16 02:05:15;;;;;;;3.00;1.40;;;;;;;10.52;69.29;101126.66;5979505;28;20323;-68
2022/05/16 02:08:11;;;;;;;4.25;1.45;;;;;;;10.52;69.59;101138.13;5979686;28;20035;-67
2022/05/16 02:11:07;;;;;;;2.63;1.27;;;;;;;10.50;69.40;101134.78;5980802;28;20098;-67
2022/05/16 02:14:03;;;;;;;5.03;1.35;;;;;;;10.51;68.96;101133.81;5987275;28;20031;-67
2022/05/16 02:16:58;;;;;;;3.22;1.40;;;;;;;10.49;69.29;101129.63;5979794;28;20039;-68
2022/05/16 02:19:53;;;;;;;3.83;1.40;;;;;;;10.36;69.77;101123.69;5979758;28;20410;-68
2022/05/16 02:26:03;;;;;;;3.47;1.40;;;;;;;10.16;70.46;101120.97;5980221;28;20479;-66
2022/05/16 02:28:59;;;;;;;4.70;1.40;;;;;;;10.15;70.53;101121.13;5980098;28;20031;-68
2022/05/16 02:31:54;;;;;;;5.15;1.20;;;;;;;10.15;70.55;101116.66;5979213;28;20043;-67
2022/05/16 02:34:50;;;;;;;2.88;1.48;;;;;;;10.13;71.09;101115.13;5986391;28;20057;-67
2022/05/16 02:37:45;;;;;;;3.83;1.40;;;;;;;10.08;70.85;101110.16;5979475;28;20570;-68
2022/05/16 02:40:41;;;;;;;4.88;1.60;;;;;;;10.07;71.04;101105.84;5980269;28;20030;-66
2022/05/16 02:43:37;;;;;;;1.95;1.02;;;;;;;9.97;71.33;101099.66;5978857;28;20464;-67
2022/05/16 02:46:32;;;;;;;3.70;1.33;;;;;;;10.00;71.78;101103.88;5979890;28;20055;-67
2022/05/16 02:49:27;;;;;;;5.35;1.55;;;;;;;10.06;71.24;101092.72;5979686;28;20155;-67
2022/05/16 02:52:23;;;;;;;4.77;1.57;;;;;;;9.84;72.04;101085.78;5979253;28;20057;-67
2022/05/16 02:55:19;;;;;;;2.67;1.40;;;;;;;9.81;72.89;101087.91;5978807;28;20039;-67
2022/05/16 02:58:14;;;;;;;3.35;1.35;;;;;;;9.77;72.43;101083.81;5975470;28;20031;-67
2022/05/16 03:01:11;;;;;;;4.20;1.60;;;;;;;9.82;72.72;101093.03;5978210;28;20035;-67
2022/05/16 03:04:06;;;;;;;3.95;1.70;;;;;;;9.80;72.66;101089.69;5978676;28;20046;-67
2022/05/16 03:07:03;;;;;;;3.53;1.60;;;;;;;9.89;72.45;101102.13;5978747;28;20027;-68
2022/05/16 03:09:58;;;;;;;3.03;1.70;;;;;;;9.59;73.68;101089.69;5981244;28;20057;-67
2022/05/16 03:12:53;;;;;;;3.63;1.52;;;;;;;9.81;72.62;101085.25;5984322;28;20039;-66
2022/05/16 03:15:49;;;;;;;4.60;1.30;;;;;;;9.71;73.19;101086.97;5973740;29;20094;-68
2022/05/16 03:18:45;;;;;;;3.17;1.33;;;;;;;9.77;73.07;101089.97;5981806;28;20098;-67
2022/05/16 03:21:40;;;;;;;4.67;1.53;;;;;;;9.83;72.83;101088.59;5982991;28;20035;-67
2022/05/16 03:24:36;;;;;;;3.88;1.60;;;;;;;9.71;73.65;101085.19;5978621;28;20032;-67
2022/05/16 03:27:31;;;;;;;4.05;1.73;;;;;;;9.84;73.06;101095.53;5980143;28;20043;-68
2022/05/16 03:30:27;;;;;;;4.85;1.65;;;;;;;9.78;73.20;101082.84;5977686;28;20039;-68
2022/05/16 03:33:22;;;;;;;5.25;1.55;;;;;;;9.83;73.06;101093.88;5981605;28;20039;-67
2022/05/16 03:36:17;;;;;;;2.60;1.20;;;;;;;9.94;72.47;101092.00;5983146;28;20038;-66
2022/05/16 03:42:26;;;;;;;4.40;1.70;;;;;;;9.78;73.08;101096.09;5998714;28;20306;-67
2022/05/16 03:45:22;;;;;;;4.73;1.80;;;;;;;9.73;73.56;101088.53;5984525;28;20748;-66
2022/05/16 03:48:17;;;;;;;3.33;1.73;;;;;;;9.88;73.03;101073.97;5992357;28;20038;-67
2022/05/16 03:51:13;;;;;;;2.70;1.47;;;;;;;9.81;73.14;101085.25;5990944;28;20038;-68
2022/05/16 03:54:09;;;;;;;3.65;1.75;;;;;;;9.77;73.38;101067.94;5991984;28;20035;-67
2022/05/16 03:57:04;;;;;;;3.73;1.63;;;;;;;9.68;73.66;101074.00;5976828;28;20078;-66
2022/05/16 03:59:59;;;;;;;5.33;1.83;;;;;;;9.75;74.26;101080.47;5983161;28;20031;-66
2022/05/16 04:02:55;;;;;;;3.97;1.57;;;;;;;9.82;73.90;101076.31;5997326;28;20283;-66
2022/05/16 04:05:50;;;;;;;7.27;1.80;;;;;;;9.72;73.83;101068.31;5989290;28;20042;-68
2022/05/16 04:08:46;;;;;;;4.03;1.70;;;;;;;9.82;74.30;101055.13;5989891;28;20067;-67
2022/05/16 04:11:41;;;;;;;3.65;1.92;;;;;;;9.87;73.88;101048.44;5982700;28;20114;-67
2022/05/16 04:14:37;;;;;;;3.90;1.55;;;;;;;9.92;74.18;101061.31;5981467;28;20052;-67
2022/05/16 04:17:32;;;;;;;3.87;1.63;;;;;;;10.40;72.42;101074.75;5982671;28;20039;-68
2022/05/16 04:20:28;;;;;;;3.72;1.42;;;;;;;10.67;71.49;101061.69;5984678;28;20109;-66
2022/05/16 04:23:23;;;;;;;4.97;1.75;;;;;;;10.93;70.01;101065.44;5982081;28;20468;-66
2022/05/16 04:26:18;;;;;;;5.37;1.87;;;;;;;10.95;70.07;101057.38;5993792;28;20375;-66
2022/05/16 04:29:14;;;;;;;4.13;1.63;;;;;;;10.96;70.41;101059.03;5984215;28;20041;-67
2022/05/16 04:32:09;;;;;;;4.13;1.90;;;;;;;11.24;68.71;101059.03;5983746;28;20043;-68
2022/05/16 04:35:05;;;;;;;3.60;1.60;;;;;;;11.64;67.79;101045.50;5982220;28;20470;-68
2022/05/16 04:38:01;;;;;;;4.75;1.65;;;;;;;11.55;67.46;101048.19;5981628;28;20039;-67
2022/05/16 04:44:10;;;;;;;3.30;1.90;;;;;;;11.72;67.65;101048.31;5986569;28;20735;-66
2022/05/16 04:47:07;;;;;;;3.73;1.73;;;;;;;11.66;67.32;101040.88;5981453;29;20023;-67
2022/05/16 04:50:03;;;;;;;4.25;1.83;;;;;;;11.60;67.93;101046.78;5982336;28;20035;-67
2022/05/16 04:53:00;;;;;;;3.70;1.63;;;;;;;12.11;66.89;101048.16;5982409;28;20035;-67
2022/05/16 04:55:55;;;;;;;4.50;1.70;;;;;;;12.49;65.17;101056.75;5980814;28;20035;-66
2022/05/16 04:58:50;;;;;;;7.60;1.93;;;;;;;12.64;64.73;101057.03;5983931;28;20031;-67
2022/05/16 05:01:48;;;;;;;4.33;1.67;;;;;;;12.48;64.97;101056.88;5980636;28;20035;-66
2022/05/16 05:04:44;;;;;;;3.47;1.70;;;;;;;13.13;63.41;101062.88;5980449;28;20303;-66
2022/05/16 05:07:40;;;;;;;5.07;2.05;;;;;;;12.60;65.02;101050.38;5982195;28;20023;-67
2022/05/16 05:17:10;;;;;;;3.92;1.83;;;;;;;13.64;62.08;101047.75;5984873;28;20502;-67
2022/05/16 05:20:13;;;;;;;5.03;1.70;;;;;;;13.52;62.93;101045.50;5993076;28;20089;-67
2022/05/16 05:23:08;;;;;;;5.63;2.00;;;;;;;14.50;59.37;101042.31;5980229;28;20050;-67
2022/05/16 05:26:05;;;;;;;7.85;1.80;;;;;;;13.97;60.95;101043.41;5980202;28;20032;-66
2022/05/16 05:29:01;;;;;;;3.97;1.60;;;;;;;14.32;59.42;101049.59;5980053;28;20114;-67
2022/05/16 05:31:56;;;;;;;3.83;2.03;;;;;;;14.13;61.13;101038.16;5979187;28;20395;-68
2022/05/16 05:34:52;;;;;;;5.50;1.83;;;;;;;14.38;60.18;101040.97;5979763;29;20023;-68
2022/05/16 05:37:47;;;;;;;3.58;1.90;;;;;;;14.42;59.81;101050.31;5977655;28;20039;-67
2022/05/16 05:40:42;;;;;;;4.57;2.00;;;;;;;14.09;61.16;101055.50;5981169;28;20089;-66
2022/05/16 05:43:38;;;;;;;5.43;2.10;;;;;;;13.89;61.84;101046.06;5979939;28;20050;-67
2022/05/16 05:46:38;;;;;;;3.17;1.90;;;;;;;14.10;62.30;101049.19;5979865;28;20031;-67
2022/05/16 05:49:33;;;;;;;4.07;1.70;;;;;;;14.85;60.37;101039.38;5982444;28;20041;-67
2022/05/16 05:52:29;;;;;;;6.77;1.77;;;;;;;15.46;56.98;101049.59;5980585;28;20035;-67
2022/05/16 05:55:24;;;;;;;4.07;1.77;;;;;;;15.58;55.97;101042.88;5979619;28;20035;-67
2022/05/16 05:58:20;;;;;;;5.55;1.70;;;;;;;16.11;55.40;101038.69;5979756;28;20307;-66
2022/05/16 06:01:15;;;;;;;7.43;1.73;;;;;;;16.38;54.77;101041.75;5979621;28;20039;-67
2022/05/16 06:04:11;;;;;;;6.13;1.90;;;;;;;16.25;53.63;101036.09;5978953;28;20079;-67
2022/05/16 06:07:07;;;;;;;7.03;2.20;;;;;;;16.05;55.29;101046.41;5976086;28;20041;-67
2022/05/16 06:10:04;;;;;;;5.25;1.92;;;;;;;16.36;53.92;101049.09;5978875;28;20211;-67
2022/05/16 06:13:00;;;;;;;7.68;1.67;;;;;;;17.41;50.40;101034.13;5979068;28;20106;-67
2022/05/16 06:15:56;;;;;;;4.55;1.50;;;;;;;16.77;52.79;101030.97;5980286;28;20431;-67
2022/05/16 06:18:51;;;;;;;2.87;1.30;;;;;;;17.07;51.43;101037.28;5986938;28;20035;-67
2022/05/16 06:21:47;;;;;;;4.23;1.50;;;;;;;16.97;51.16;101047.41;5978498;28;20037;-68
2022/05/16 06:28:04;;;;;;;7.20;1.75;;;;;;;17.64;49.77;101034.91;5968224;29;20043;-67
2022/05/16 06:31:00;;;;;;;4.28;1.58;;;;;;;17.72;49.05;101041.03;5984277;28;20133;-66
2022/05/16 06:33:55;;;;;;;3.87;1.60;;;;;;;17.95;49.11;101038.28;5978556;28;20031;-67
2022/05/16 06:36:50;;;;;;;3.33;1.80;;;;;;;17.29;50.24;101047.13;5979058;29;20031;-66
2022/05/16 06:39:46;;;;;;;3.95;1.58;;;;;;;17.68;48.81;101037.06;5979752;28;20058;-66
2022/05/16 06:42:41;;;;;;;4.50;1.63;;;;;;;17.99;48.97;101042.25;5984577;28;20037;-67
2022/05/16 06:45:37;;;;;;;5.10;1.70;;;;;;;18.52;47.46;101029.50;5979778;28;20039;-67
2022/05/16 06:48:32;;;;;;;5.25;1.63;;;;;;;18.52;48.13;101041.09;5978497;28;20031;-67
2022/05/16 06:51:27;;;;;;;3.58;1.50;;;;;;;18.50;48.25;101037.75;5982098;28;20038;-67
2022/05/16 06:54:23;;;;;;;5.10;1.70;;;;;;;18.56;47.10;101026.28;5979152;28;20035;-66
2022/05/16 06:57:18;;;;;;;5.45;1.50;;;;;;;19.22;46.76;101043.00;5976765;28;20046;-67
2022/05/16 07:00:14;;;;;;;4.07;1.57;;;;;;;19.05;47.19;101033.56;5981206;28;20058;-68
2022/05/16 07:03:10;;;;;;;5.13;1.75;;;;;;;19.48;46.33;101021.75;5980315;28;20102;-66
2022/05/16 07:06:06;;;;;;;4.15;1.60;;;;;;;19.46;45.82;101018.41;5984776;28;20027;-67
2022/05/16 07:09:01;;;;;;;7.38;1.88;;;;;;;19.73;45.05;101022.94;5983793;28;20038;-67
2022/05/16 07:11:57;;;;;;;4.40;1.50;;;;;;;19.87;45.40;101019.28;5982472;28;20031;-67
2022/05/16 07:14:52;;;;;;;3.63;1.60;;;;;;;19.73;44.97;101024.81;5982970;28;20039;-67
2022/05/16 07:17:48;;;;;;;3.35;1.50;;;;;;;19.53;45.50;101019.28;5982525;28;20026;-66
2022/05/16 07:20:43;;;;;;;6.63;1.80;;;;;;;19.49;45.13;101018.00;5988906;28;20082;-66
2022/05/16 07:23:38;;;;;;;7.97;2.00;;;;;;;19.43;45.83;101010.75;5983026;29;20398;-66
2022/05/16 07:29:48;;;;;;;5.43;1.52;;;;;;;20.06;44.33;101009.63;5986700;28;20091;-67
2022/05/16 07:32:45;;;;;;;8.67;1.53;;;;;;;20.27;42.86;100995.28;5982166;28;20035;-66
2022/05/16 07:35:40;;;;;;;6.25;1.67;;;;;;;20.34;43.55;100991.56;5982712;28;20032;-67
2022/05/16 07:38:35;;;;;;;6.17;1.83;;;;;;;20.50;42.68;100990.34;5984326;28;20045;-66
2022/05/16 07:41:31;;;;;;;3.05;1.45;;;;;;;20.80;42.36;100983.56;5982833;28;20451;-68
2022/05/16 07:44:26;;;;;;;3.30;1.42;;;;;;;20.80;43.01;100986.25;5994322;28;20031;-67
2022/05/16 07:47:21;;;;;;;5.03;1.63;;;;;;;20.62;41.96;100984.19;5987798;28;20038;-67
2022/05/16 07:50:17;;;;;;;4.60;2.37;;;;;;;20.89;40.85;100976.94;5984668;28;20046;-67
2022/05/16 07:53:13;;;;;;;4.97;1.30;;;;;;;20.93;39.91;100970.09;5982625;28;20071;-67
2022/05/16 07:56:09;;;;;;;3.92;1.40;;;;;;;21.06;40.16;100975.47;5982781;28;20038;-67
2022/05/16 07:59:04;;;;;;;4.87;1.30;;;;;;;21.40;38.98;100973.63;5983087;28;20035;-67
2022/05/16 08:02:00;;;;;;;5.50;1.80;;;;;;;21.40;38.39;100965.53;5982124;28;20042;-67
2022/05/16 08:04:55;;;;;;;5.03;1.35;;;;;;;21.76;38.24;100977.50;5995094;28;20031;-67
2022/05/16 08:11:04;;;;;;;7.45;1.40;;;;;;;21.25;38.32;100976.56;5982172;29;20020;-67
2022/05/16 08:14:00;;;;;;;5.90;1.43;;;;;;;21.14;39.02;100980.72;5982532;28;20043;-68
2022/05/16 08:16:55;;;;;;;3.72;1.30;;;;;;;21.31;38.52;100981.94;5982619;28;20023;-67
2022/05/16 08:19:50;;;;;;;3.63;1.43;;;;;;;21.65;38.79;100985.41;5981004;28;20159;-67
2022/05/16 08:22:46;;;;;;;4.70;1.50;;;;;;;21.74;38.63;100978.75;5983478;28;20430;-68
2022/05/16 08:25:45;;;;;;;5.35;1.40;;;;;;;21.67;38.24;100978.75;5987984;28;20042;-66
2022/05/16 08:28:40;;;;;;;5.20;1.58;;;;;;;21.98;37.75;100975.38;5981944;28;20217;-67
2022/05/16 08:31:36;;;;;;;5.13;1.37;;;;;;;22.14;38.27;100969.47;5981582;28;20031;-67
2022/05/16 08:34:31;;;;;;;4.37;1.40;;;;;;;22.20;37.68;100957.81;5979066;28;20281;-68
2022/05/16 08:41:02;;;;;;;5.80;1.40;;;;;;;22.24;36.35;100966.28;5981622;29;20046;-67
2022/05/16 08:44:07;;;;;;;3.42;1.30;;;;;;;22.13;37.32;100965.09;5979603;28;20175;-67
2022/05/16 08:47:27;;;;;;;7.07;1.40;;;;;;;22.37;37.39;100972.47;5985544;28;20364;-68
2022/05/16 08:50:27;;;;;;;4.22;1.77;;;;;;;22.58;36.27;100967.78;5983492;28;20398;-67
2022/05/16 08:53:31;;;;;;;3.95;1.20;;;;;;;22.60;36.28;100971.06;5981545;28;20041;-68
2022/05/16 08:56:31;;;;;;;4.93;1.48;;;;;;;22.46;36.31;100970.34;5981383;28;20043;-67
2022/05/16 08:59:28;;;;;;;4.47;1.30;;;;;;;23.03;36.42;100974.75;5981332;28;20062;-67
2022/05/16 09:02:24;;;;;;;4.38;1.60;;;;;;;22.77;35.48;100956.84;5980114;28;20051;-67
2022/05/16 09:05:25;;;;;;;4.53;1.55;;;;;;;22.45;36.42;100950.56;5990271;28;20039;-68
2022/05/16 09:08:36;;;;;;;4.25;1.50;;;;;;;22.46;36.75;100967.63;5979604;29;20035;-67
2022/05/16 09:11:47;;;;;;;3.55;1.63;;;;;;;22.70;36.48;100968.75;5973996;28;20040;-67
2022/05/16 09:15:00;;;;;;;5.72;1.88;;;;;;;22.88;36.19;100955.31;5977569;29;20035;-68
2022/05/16 09:18:24;;;;;;;5.25;1.58;;;;;;;23.06;35.28;100960.78;5979771;29;20043;-67
2022/05/16 09:21:27;;;;;;;4.60;1.80;;;;;;;22.86;36.49;100962.78;5982570;28;20026;-67
2022/05/16 09:24:35;;;;;;;6.05;2.20;;;;;;;22.95;36.66;100967.72;5983397;28;20479;-68
2022/05/16 09:30:47;;;;;;;6.93;1.90;;;;;;;22.84;36.67;100951.38;5981265;28;20039;-67
2022/05/16 09:33:46;;;;;;;11.52;2.15;;;;;;;22.96;37.34;100953.16;5979737;28;20043;-67
2022/05/16 09:36:45;;;;;;;7.85;2.38;;;;;;;23.22;36.77;100943.97;5980248;28;20115;-67
2022/05/16 09:39:42;;;;;;;5.55;1.80;;;;;;;23.07;37.20;100948.91;5980703;28;20039;-68
2022/05/16 09:42:37;;;;;;;6.95;1.92;;;;;;;23.65;36.66;100946.66;5982135;28;20039;-68
2022/05/16 09:45:34;;;;;;;4.90;1.73;;;;;;;23.42;36.69;100947.34;5977460;29;20070;-67
2022/05/16 09:48:29;;;;;;;10.05;2.55;;;;;;;23.39;37.78;100958.63;5978964;29;20518;-68
2022/05/16 09:51:24;;;;;;;6.73;1.80;;;;;;;23.66;36.67;100953.75;5979863;28;20122;-69
2022/05/16 09:54:27;;;;;;;7.43;2.30;;;;;;;23.87;36.55;100955.16;5979687;28;20035;-68
2022/05/16 09:57:22;;;;;;;8.38;1.98;;;;;;;23.95;35.48;100935.88;5977234;28;20372;-66
2022/05/16 10:00:31;;;;;;;7.50;1.73;;;;;;;23.91;36.14;100935.53;5979033;28;20058;-67
2022/05/16 10:03:32;;;;;;;6.35;2.38;;;;;;;23.87;35.75;100933.47;5984880;28;20483;-67
2022/05/16 10:06:32;;;;;;;6.43;1.85;;;;;;;24.02;36.09;100947.47;5979618;28;20471;-67
2022/05/16 10:09:39;;;;;;;7.95;1.90;;;;;;;24.08;35.57;100952.78;5989481;28;20027;-67
2022/05/16 10:12:35;;;;;;;6.35;2.28;;;;;;;23.93;36.03;100943.41;5982930;28;20490;-66
2022/05/16 10:15:31;;;;;;;8.13;2.27;;;;;;;24.16;36.37;100955.22;5988153;28;20039;-67
2022/05/16 10:18:27;;;;;;;6.03;2.42;;;;;;;24.11;36.13;100965.09;5983451;28;20275;-66
2022/05/16 10:21:29;;;;;;;5.32;1.75;;;;;;;24.47;36.04;100943.31;5978049;28;20039;-67
2022/05/16 10:24:28;;;;;;;5.30;2.10;;;;;;;24.58;35.42;100944.41;5984586;28;20023;-68
2022/05/16 10:27:35;;;;;;;6.63;2.63;;;;;;;24.60;35.70;100945.00;5995286;28;20093;-67
2022/05/16 10:33:24;;;;;;;6.40;1.90;;;;;;;24.68;35.69;100940.06;5981868;28;20090;-67
2022/05/16 10:33:49;;;;;;;4.30;2.08;;;;;;;24.65;35.90;100937.81;5977944;28;20031;-66
2022/05/16 10:36:48;;;;;;;6.40;2.10;;;;;;;25.01;34.70;100936.00;5978044;29;20122;-67
2022/05/16 10:39:50;;;;;;;10.02;2.05;;;;;;;24.77;35.57;100930.53;5980291;28;20035;-67
2022/05/16 10:42:50;;;;;;;6.38;2.03;;;;;;;25.02;35.15;100932.25;5970291;28;20123;-66
2022/05/16 10:45:51;;;;;;;6.07;2.20;;;;;;;24.75;35.08;100927.25;5967708;28;20122;-67
2022/05/16 10:48:51;;;;;;;10.68;1.92;;;;;;;24.74;35.19;100922.03;5979101;28;20383;-67
2022/05/16 10:51:52;;;;;;;6.40;1.77;;;;;;;24.82;35.60;100927.16;5980004;28;20113;-67
2022/05/16 10:54:48;;;;;;;9.48;2.25;;;;;;;24.91;35.49;100898.63;5981346;28;20170;-67
2022/05/16 10:58:01;;;;;;;7.83;2.17;;;;;;;25.08;35.82;100904.16;5978869;28;20047;-67
2022/05/16 11:00:59;;;;;;;6.35;2.40;;;;;;;25.37;34.79;100914.88;5978271;28;20039;-67
2022/05/16 11:04:04;;;;;;;6.05;2.03;;;;;;;24.95;34.89;100898.97;5985843;28;20441;-67
2022/05/16 11:07:08;;;;;;;6.55;2.50;;;;;;;25.58;34.66;100904.47;5974285;28;20039;-66
2022/05/16 11:10:32;;;;;;;6.60;2.20;;;;;;;25.14;35.19;100893.16;5979944;28;20494;-66
2022/05/16 11:14:02;;;;;;;5.15;2.40;;;;;;;25.87;34.71;100896.13;5976752;28;20031;-66
2022/05/16 11:17:21;;;;;;;7.60;2.17;;;;;;;26.14;34.48;100887.44;5988201;28;20329;-66
2022/05/16 11:20:28;;;;;;;8.40;2.00;;;;;;;26.00;34.34;100890.41;5977069;28;20487;-66
2022/05/16 11:23:53;;;;;;;6.03;2.15;;;;;;;25.41;35.14;100888.09;5970604;28;20043;-66
2022/05/16 11:27:09;;;;;;;9.05;2.40;;;;;;;24.74;36.24;100884.88;5968260;28;20223;-66
2022/05/16 11:30:27;;;;;;;8.13;2.45;;;;;;;24.87;36.30;100888.47;5978130;28;20093;-67
2022/05/16 11:33:31;;;;;;;6.45;2.35;;;;;;;25.46;35.60;100885.47;5978181;28;20623;-67
2022/05/16 11:36:47;;;;;;;9.30;2.60;;;;;;;24.97;36.08;100877.84;5978255;28;20042;-67
2022/05/16 11:40:06;;;;;;;5.45;1.98;;;;;;;25.15;36.19;100883.13;5977233;28;20054;-66
2022/05/16 11:43:15;;;;;;;10.32;2.25;;;;;;;25.26;36.36;100894.00;5991428;28;20090;-66
2022/05/16 11:46:29;;;;;;;5.30;2.10;;;;;;;24.94;36.35;100891.88;5985816;28;20039;-67
2022/05/16 11:49:52;;;;;;;8.68;2.17;;;;;;;24.74;36.92;100876.75;5976905;29;20568;-66
2022/05/16 11:53:04;;;;;;;10.45;2.95;;;;;;;25.09;36.57;100895.78;5984331;28;20415;-67
2022/05/16 12:02:45;;;;;;;8.27;1.77;;;;;;;25.41;37.03;100882.66;5983649;28;20047;-67
2022/05/16 12:05:44;;;;;;;6.28;2.20;;;;;;;25.49;37.11;100882.31;5982482;28;20062;-67
2022/05/16 12:08:42;;;;;;;7.13;2.40;;;;;;;25.05;37.69;100882.91;5982775;28;20042;-67
2022/05/16 12:11:51;;;;;;;4.45;2.10;;;;;;;25.11;37.41;100868.41;5981595;28;20039;-67
2022/05/16 12:15:10;;;;;;;7.65;2.22;;;;;;;25.08;37.60;100871.59;5995200;28;20043;-67
2022/05/16 12:18:07;;;;;;;11.02;2.20;;;;;;;25.26;37.25;100868.72;5981877;28;20038;-67
2022/05/16 12:21:06;;;;;;;6.03;2.20;;;;;;;25.48;37.02;100853.50;5980221;28;20118;-66
2022/05/16 12:24:06;;;;;;;6.50;2.20;;;;;;;25.39;37.51;100874.72;5977922;28;20035;-67
2022/05/16 12:27:08;;;;;;;8.93;2.80;;;;;;;25.34;37.73;100869.19;5980867;28;20133;-66
2022/05/16 12:30:08;;;;;;;5.57;1.95;;;;;;;25.44;37.19;100866.69;5981257;28;20526;-67
2022/05/16 12:33:42;;;;;;;6.97;2.22;;;;;;;25.55;36.67;100873.19;5982107;28;20123;-67
2022/05/16 12:36:37;;;;;;;9.65;2.15;;;;;;;25.52;37.06;100872.84;5981653;28;20043;-67
2022/05/16 12:39:39;;;;;;;6.63;2.43;;;;;;;25.41;37.35;100860.94;5981962;28;20047;-66
2022/05/16 12:42:47;;;;;;;6.05;2.17;;;;;;;25.10;38.13;100872.19;5989677;28;20507;-67
2022/05/16 12:46:22;;;;;;;8.88;2.88;;;;;;;25.09;38.79;100865.09;5981110;28;20406;-67
2022/05/16 12:49:40;;;;;;;8.30;2.40;;;;;;;25.27;37.61;100859.53;5981768;28;20423;-66
2022/05/16 12:53:09;;;;;;;11.45;2.40;;;;;;;25.60;37.72;100853.47;5970913;29;20042;-67
2022/05/16 12:56:18;;;;;;;6.10;2.30;;;;;;;25.77;37.65;100857.88;5991616;28;20482;-67
2022/05/16 12:59:25;;;;;;;4.93;2.42;;;;;;;25.95;37.72;100854.97;5977038;28;20093;-67
2022/05/16 13:02:30;;;;;;;5.85;2.42;;;;;;;25.84;38.15;100855.03;5980022;29;20876;-67
2022/05/16 13:05:32;;;;;;;4.93;2.25;;;;;;;26.34;37.36;100849.69;5979565;28;20046;-67
2022/05/16 13:08:47;;;;;;;8.02;2.50;;;;;;;25.58;38.01;100840.09;5968691;29;20038;-66
2022/05/16 13:12:00;;;;;;;8.85;2.58;;;;;;;26.03;38.13;100843.72;5980713;28;20427;-67
2022/05/16 13:15:05;;;;;;;6.53;2.47;;;;;;;25.54;37.94;100843.56;5973186;28;20046;-66
2022/05/16 13:18:00;;;;;;;8.30;2.75;;;;;;;25.37;38.45;100833.41;5983513;28;20032;-67
2022/05/16 13:21:00;;;;;;;6.97;2.60;;;;;;;25.52;38.31;100832.13;5979623;29;20069;-66
2022/05/16 13:23:57;;;;;;;;;;;;;;;25.56;39.01;100833.25;5984200;28;20027;-67
2022/05/16 13:30:17;;;;;;;7.28;2.40;;;;;;;26.16;37.50;100836.34;5980682;28;20054;-66
2022/05/16 13:33:23;;;;;;;5.75;2.10;;;;;;;26.21;37.70;100834.53;5980876;28;20069;-66
2022/05/16 13:36:21;;;;;;;6.95;2.53;;;;;;;26.41;38.00;100834.06;5989284;28;20042;-67
2022/05/16 13:39:16;;;;;;;7.07;2.95;;;;;;;26.60;37.61;100832.75;5981337;28;20046;-66
2022/05/16 13:42:11;;;;;;;10.43;2.93;;;;;;;25.93;39.81;100829.09;5981771;28;20039;-67
2022/05/16 13:45:08;;;;;;;7.10;2.70;;;;;;;25.56;41.39;100834.09;5980866;28;20301;-67
2022/05/16 13:48:06;;;;;;;5.65;2.60;;;;;;;25.88;41.17;100831.72;5972567;28;20035;-67
2022/05/16 13:51:02;;;;;;;9.73;3.05;;;;;;;25.62;41.44;100835.84;5980319;28;20078;-67
2022/05/16 13:54:03;;;;;;;7.35;2.90;;;;;;;25.27;42.21;100837.81;5996534;28;20039;-66
2022/05/16 13:57:01;;;;;;;6.97;3.03;;;;;;;25.19;42.99;100843.59;5981786;28;20035;-66
2022/05/16 14:00:14;;;;;;;7.40;2.80;;;;;;;25.21;42.68;100845.03;5987213;28;20051;-68
2022/05/16 14:03:24;;;;;;;7.80;2.70;;;;;;;25.13;43.25;100831.81;5986479;28;20043;-67
2022/05/16 14:06:38;;;;;;;6.78;3.17;;;;;;;24.99;43.58;100826.88;5980949;28;20093;-66
2022/05/16 14:09:52;;;;;;;9.68;2.88;;;;;;;24.95;43.57;100840.06;5978512;28;20535;-66
2022/05/16 14:12:59;;;;;;;5.72;3.00;;;;;;;25.02;43.80;100829.09;5979263;28;20383;-66
2022/05/16 14:16:01;;;;;;;6.25;2.90;;;;;;;24.82;43.49;100826.75;5979656;28;20090;-67
2022/05/16 14:19:05;;;;;;;8.60;2.88;;;;;;;24.69;44.17;100841.34;5979783;28;20039;-66
2022/05/16 14:22:02;;;;;;;5.47;2.67;;;;;;;24.66;43.48;100836.41;5982712;28;20040;-67
2022/05/16 14:25:05;;;;;;;6.93;2.95;;;;;;;24.43;44.44;100833.69;5976089;28;20057;-67
2022/05/16 14:28:18;;;;;;;6.88;2.72;;;;;;;23.92;45.58;100838.78;5979189;28;20043;-67
2022/05/16 14:31:26;;;;;;;7.05;3.10;;;;;;;23.59;46.91;100840.06;5978597;28;20041;-66
2022/05/16 14:34:28;;;;;;;7.90;3.30;;;;;;;23.42;47.64;100847.19;5974152;28;20451;-66
2022/05/16 14:37:27;;;;;;;7.72;2.80;;;;;;;23.20;49.38;100851.34;5971161;28;20047;-67
2022/05/16 14:40:24;;;;;;;10.70;3.15;;;;;;;22.85;51.62;100850.25;5970515;29;20050;-67
2022/05/16 14:43:37;;;;;;;9.40;3.42;;;;;;;22.47;54.39;100851.19;5985848;28;20109;-66